Accueil
METAR-TAF:

METAR-TAF

Aéroports :

Wittering, Angleterre

latitude: 52-37N, longitude: 000-28W, altitude: 84 m

Observation

Le bulletin a été fait il y a 37 minutes, à 21:50 UTC
Vent 4 kt de nord-ouest
Température 7°C
Humidité 93%
Pression 1015 hPa
Visibilité 10 km ou plus
pluie faible, bruine

METAR: EGXT 272150Z AUTO 32004KT 9999 -RADZ FEW039/// BKN060/// 07/06 Q1015

Heure: 23:27 (22:27 UTC)

Prévision

Le bulletin a été fait il y a 9 heures et 11 minutes, à 13:16 UTC
Prévision valable du 27 à 15 UTC au 27 à 18 UTC
Vent 14 kt de ouest
Visibilité 10 km ou plus
Nuages fragmentés à une hauteur de 2000 ft
pluie faible
Temporairement
du 27 à 15 UTC au 27 à 16 UTC
Nuages fragmentés à une hauteur de 2500 ft
Probabilité 30% :
Temporairement
du 27 à 16 UTC au 27 à 18 UTC
Visibilité: 7000 m
Nuages épars à une hauteur de 1400 ft
pluie

TAF: EGXT 271316Z 2715/2718 27014KT 9999 -RA BKN020 TEMPO 2715/2716 BKN025 PROB30 TEMPO 2716/2718 7000 RA SCT014

Observations et prévisions météorologiques de plus de 4000 aéroports (messages METAR et TAF).

Les stations disponibles sont représentées par des disques jaunes et rouges sur la carte.

Passer la souris dessus pour voir le nom de la station.

Cliquer dessus pour voir les observations et prévisions météorologiques.

Pour changer de carte: cliquez sur les boutons verts avec une croix noire pour zoomer, sur le bouton vert avec un tiret pour effectuer un zoom arrière, ou sur les flèches vertes pour les cartes adjacentes.


METAR-TAF: